createdAt,value
2023-04-05T00:00:54.518Z,101306.41
2023-04-05T00:03:22.352Z,101306.16
2023-04-05T00:05:51.059Z,101305.81
2023-04-05T00:08:24.445Z,101302.09
2023-04-05T00:10:52.304Z,101300.91
2023-04-05T00:13:20.464Z,101304.94
2023-04-05T00:15:49.175Z,101304.06
2023-04-05T00:18:22.746Z,101307.34
2023-04-05T00:21:14.609Z,101310.94
2023-04-05T00:23:45.219Z,101305.41
2023-04-05T00:26:13.401Z,101304.16
2023-04-05T00:28:45.178Z,101304.13
2023-04-05T00:31:12.771Z,101300.75
2023-04-05T00:33:40.961Z,101303.38
2023-04-05T00:36:36.388Z,101310.19
2023-04-05T00:39:04.146Z,101318.56
2023-04-05T00:41:32.253Z,101308.88
2023-04-05T00:44:00.062Z,101309.03
2023-04-05T00:46:28.480Z,101317.13
2023-04-05T00:48:56.777Z,101313.69
2023-04-05T00:51:24.665Z,101307.94
2023-04-05T00:53:53.098Z,101314.31
2023-04-05T00:56:21.914Z,101315.72
2023-04-05T00:58:52.267Z,101313.16
2023-04-05T01:01:20.635Z,101306.19
2023-04-05T01:03:53.781Z,101308.13
2023-04-05T01:06:38.622Z,101309.78
2023-04-05T01:09:06.690Z,101302.59
2023-04-05T01:11:34.275Z,101302.88
2023-04-05T01:14:02.367Z,101297.16
2023-04-05T01:16:30.453Z,101303.50
2023-04-05T01:18:58.537Z,101298.50
2023-04-05T01:21:40.696Z,101302.13
2023-04-05T01:24:38.768Z,101299.72
2023-04-05T01:27:15.173Z,101305.53
2023-04-05T01:30:13.989Z,101306.72
2023-04-05T01:33:02.663Z,101307.06
2023-04-05T01:35:39.744Z,101301.97
2023-04-05T01:38:11.620Z,101304.69
2023-04-05T01:40:38.831Z,101303.91
2023-04-05T01:43:16.030Z,101302.34
2023-04-05T01:45:43.520Z,101291.31
2023-04-05T01:48:11.099Z,101295.72
2023-04-05T01:50:39.000Z,101295.81
2023-04-05T01:53:08.248Z,101301.97
2023-04-05T01:55:36.194Z,101300.66
2023-04-05T01:58:04.084Z,101294.78
2023-04-05T02:00:32.113Z,101290.63
2023-04-05T02:02:59.918Z,101296.72
2023-04-05T02:05:28.118Z,101301.91
2023-04-05T02:07:55.833Z,101292.81
2023-04-05T02:10:23.652Z,101296.97
2023-04-05T02:12:51.683Z,101295.28
2023-04-05T02:15:19.386Z,101293.88
2023-04-05T02:17:47.479Z,101297.22
2023-04-05T02:20:14.714Z,101298.81
2023-04-05T02:22:45.616Z,101297.22
2023-04-05T02:25:13.758Z,101290.38
2023-04-05T02:27:41.615Z,101293.00
2023-04-05T02:30:10.696Z,101293.78
2023-04-05T02:32:38.680Z,101294.84
2023-04-05T02:35:09.405Z,101284.88
2023-04-05T02:37:37.430Z,101289.66
2023-04-05T02:40:10.745Z,101289.41
2023-04-05T02:42:39.628Z,101284.81
2023-04-05T02:45:09.533Z,101277.84
2023-04-05T02:47:37.774Z,101281.03
2023-04-05T02:50:08.411Z,101284.97
2023-04-05T02:52:37.599Z,101283.84
2023-04-05T02:55:09.443Z,101281.91
2023-04-05T02:57:37.214Z,101288.41
2023-04-05T03:00:06.370Z,101287.41
2023-04-05T03:02:34.716Z,101282.94
2023-04-05T03:05:02.480Z,101288.03
2023-04-05T03:07:30.637Z,101287.88
2023-04-05T03:09:58.688Z,101292.38
2023-04-05T03:12:26.764Z,101284.50
2023-04-05T03:14:54.858Z,101286.66
2023-04-05T03:17:22.821Z,101294.47
2023-04-05T03:19:50.487Z,101276.44
2023-04-05T03:22:18.665Z,101279.94
2023-04-05T03:24:46.719Z,101280.13
2023-04-05T03:27:15.142Z,101281.91
2023-04-05T03:29:43.750Z,101271.13
2023-04-05T03:32:12.335Z,101278.78
2023-04-05T03:34:40.272Z,101279.69
2023-04-05T03:37:08.290Z,101270.25
2023-04-05T03:39:36.654Z,101278.53
2023-04-05T03:42:05.395Z,101273.25
2023-04-05T03:44:33.823Z,101283.13
2023-04-05T03:47:01.908Z,101273.97
2023-04-05T03:49:29.467Z,101279.44
2023-04-05T03:51:57.219Z,101274.34
2023-04-05T03:54:24.951Z,101282.59
2023-04-05T03:56:53.082Z,101280.13
2023-04-05T03:59:20.949Z,101284.44
2023-04-05T04:01:48.631Z,101279.75
2023-04-05T04:04:16.329Z,101277.16
2023-04-05T04:06:43.856Z,101281.03
2023-04-05T04:09:14.565Z,101276.88
2023-04-05T04:11:42.671Z,101281.38
2023-04-05T04:14:10.452Z,101278.09
2023-04-05T04:16:38.574Z,101284.38
2023-04-05T04:19:06.788Z,101284.53
2023-04-05T04:21:35.939Z,101279.78
2023-04-05T04:24:04.100Z,101277.13
2023-04-05T04:26:37.998Z,101286.56
2023-04-05T04:29:06.844Z,101285.75
2023-04-05T04:31:34.382Z,101291.06
2023-04-05T04:34:03.446Z,101282.44
2023-04-05T04:36:37.100Z,101277.41
2023-04-05T04:39:08.173Z,101282.53
2023-04-05T04:41:36.072Z,101279.88
2023-04-05T04:44:06.679Z,101287.53
2023-04-05T04:46:42.924Z,101285.22
2023-04-05T04:49:11.315Z,101297.25
2023-04-05T04:51:40.253Z,101287.00
2023-04-05T04:54:08.539Z,101292.03
2023-04-05T04:56:36.293Z,101283.31
2023-04-05T04:59:04.316Z,101297.16
2023-04-05T05:01:34.021Z,101296.34
2023-04-05T05:04:03.496Z,101299.00
2023-04-05T05:06:31.413Z,101296.72
2023-04-05T05:08:59.554Z,101305.34
2023-04-05T05:11:29.042Z,101303.03
2023-04-05T05:13:57.012Z,101300.75
2023-04-05T05:16:25.314Z,101300.03
2023-04-05T05:18:56.037Z,101301.72
2023-04-05T05:21:23.964Z,101306.19
2023-04-05T05:23:51.925Z,101308.31
2023-04-05T05:26:20.120Z,101301.69
2023-04-05T05:28:49.686Z,101311.31
2023-04-05T05:31:18.179Z,101308.81
2023-04-05T05:33:49.553Z,101313.59
2023-04-05T05:36:20.207Z,101315.31
2023-04-05T05:38:49.196Z,101314.78
2023-04-05T05:41:17.528Z,101308.19
2023-04-05T05:43:45.228Z,101318.91
2023-04-05T05:46:13.760Z,101313.56
2023-04-05T05:48:42.142Z,101321.44
2023-04-05T05:51:10.100Z,101314.22
2023-04-05T05:53:38.152Z,101317.94
2023-04-05T05:56:06.581Z,101323.53
2023-04-05T05:58:34.279Z,101323.69
2023-04-05T06:01:03.731Z,101322.41
2023-04-05T06:03:31.683Z,101318.41
2023-04-05T06:05:59.757Z,101319.88
2023-04-05T06:08:29.849Z,101322.03
2023-04-05T06:10:57.914Z,101320.06
2023-04-05T06:13:25.656Z,101328.84
2023-04-05T06:15:53.701Z,101329.16
2023-04-05T06:18:21.763Z,101328.75
2023-04-05T06:20:50.701Z,101322.06
2023-04-05T06:23:18.876Z,101329.50
2023-04-05T06:25:46.500Z,101322.03
2023-04-05T06:28:14.593Z,101322.34
2023-04-05T06:30:42.761Z,101329.63
2023-04-05T06:33:10.589Z,101324.28
2023-04-05T06:35:38.578Z,101329.63
2023-04-05T06:38:06.619Z,101323.75
2023-04-05T06:40:34.281Z,101328.88
2023-04-05T06:43:02.395Z,101329.28
2023-04-05T06:45:30.412Z,101326.78
2023-04-05T06:47:58.289Z,101330.97
2023-04-05T06:50:26.120Z,101327.50
2023-04-05T06:52:53.923Z,101331.84
2023-04-05T06:55:22.115Z,101333.53
2023-04-05T06:57:50.314Z,101325.44
2023-04-05T07:00:19.040Z,101329.53
2023-04-05T07:02:46.918Z,101330.50
2023-04-05T07:05:15.196Z,101329.34
2023-04-05T07:07:43.365Z,101322.09
2023-04-05T07:10:11.475Z,101327.66
2023-04-05T07:12:43.124Z,101329.78
2023-04-05T07:15:13.513Z,101332.81
2023-04-05T07:17:41.228Z,101330.66
2023-04-05T07:20:10.973Z,101332.50
2023-04-05T07:22:39.006Z,101327.38
2023-04-05T07:25:10.481Z,101331.03
2023-04-05T07:27:39.956Z,101337.53
2023-04-05T07:30:10.840Z,101339.38
2023-04-05T07:32:40.009Z,101347.47
2023-04-05T07:35:08.633Z,101341.81
2023-04-05T07:37:36.284Z,101333.69
2023-04-05T07:40:06.489Z,101337.41
2023-04-05T07:42:34.214Z,101349.72
2023-04-05T07:45:01.893Z,101344.16
2023-04-05T07:47:30.093Z,101347.75
2023-04-05T07:49:58.084Z,101348.19
2023-04-05T07:52:26.290Z,101354.56
2023-04-05T07:54:56.893Z,101345.78
2023-04-05T07:57:25.068Z,101349.59
2023-04-05T07:59:55.203Z,101357.84
2023-04-05T08:02:23.300Z,101352.66
2023-04-05T08:04:50.856Z,101360.31
2023-04-05T08:07:18.682Z,101364.22
2023-04-05T08:09:46.850Z,101361.72
2023-04-05T08:12:15.393Z,101363.84
2023-04-05T08:14:43.507Z,101364.78
2023-04-05T08:17:11.538Z,101365.66
2023-04-05T08:19:39.497Z,101371.88
2023-04-05T08:22:07.589Z,101373.63
2023-04-05T08:24:35.814Z,101368.72
2023-04-05T08:27:03.491Z,101374.72
2023-04-05T08:29:31.475Z,101372.06
2023-04-05T08:31:59.228Z,101361.84
2023-04-05T08:34:27.239Z,101370.59
2023-04-05T08:36:58.783Z,101374.19
2023-04-05T08:39:26.945Z,101366.75
2023-04-05T08:42:42.220Z,101364.63
2023-04-05T08:45:11.478Z,101374.13
2023-04-05T08:47:42.012Z,101367.38
2023-04-05T08:50:13.921Z,101372.34
2023-04-05T08:52:43.236Z,101371.13
2023-04-05T08:55:11.603Z,101360.59
2023-04-05T08:57:40.585Z,101373.13
2023-04-05T09:00:11.969Z,101370.66
2023-04-05T09:02:39.483Z,101369.38
2023-04-05T09:05:11.214Z,101370.78
2023-04-05T09:07:39.394Z,101368.13
2023-04-05T09:10:06.815Z,101361.06
2023-04-05T09:12:35.079Z,101364.38
2023-04-05T09:15:03.519Z,101358.22
2023-04-05T09:17:32.425Z,101359.19
2023-04-05T09:20:00.189Z,101366.72
2023-04-05T09:22:27.501Z,101357.09
2023-04-05T09:24:55.077Z,101354.78
2023-04-05T09:27:23.130Z,101353.78
2023-04-05T09:29:51.380Z,101361.16
2023-04-05T09:32:21.524Z,101353.47
2023-04-05T09:34:50.286Z,101359.94
2023-04-05T09:37:20.119Z,101352.56
2023-04-05T09:39:49.649Z,101362.59
2023-04-05T09:42:17.627Z,101351.38
2023-04-05T09:44:57.844Z,101351.56
2023-04-05T09:47:31.394Z,101354.81
2023-04-05T09:49:59.494Z,101345.91
2023-04-05T09:52:27.087Z,101345.38
2023-04-05T09:54:56.753Z,101344.72
2023-04-05T09:57:27.612Z,101339.16
2023-04-05T09:59:55.838Z,101343.88
2023-04-05T10:02:24.122Z,101343.16
2023-04-05T10:04:51.751Z,101336.97
2023-04-05T10:07:20.532Z,101338.91
2023-04-05T10:09:48.792Z,101337.16
2023-04-05T10:12:29.703Z,101339.81
2023-04-05T10:14:57.955Z,101337.09
2023-04-05T10:17:26.417Z,101335.09
2023-04-05T10:20:08.899Z,101323.31
2023-04-05T10:22:57.184Z,101328.31
2023-04-05T10:25:45.388Z,101322.22
2023-04-05T10:28:35.350Z,101324.31
2023-04-05T10:31:26.987Z,101333.25
2023-04-05T10:34:09.359Z,101328.94
2023-04-05T10:37:01.050Z,101321.34
2023-04-05T10:39:41.248Z,101329.78
2023-04-05T10:42:12.685Z,101320.47
2023-04-05T10:44:40.332Z,101319.66
2023-04-05T10:47:08.075Z,101313.97
2023-04-05T10:49:43.834Z,101304.88
2023-04-05T10:52:11.312Z,101311.38
2023-04-05T10:54:39.100Z,101301.88
2023-04-05T10:57:09.948Z,101309.72
2023-04-05T10:59:42.220Z,101304.03
2023-04-05T11:02:09.757Z,101292.41
2023-04-05T11:04:39.533Z,101297.00
2023-04-05T11:07:11.707Z,101295.28
2023-04-05T11:09:39.329Z,101298.78
2023-04-05T11:12:06.629Z,101301.31
2023-04-05T11:14:41.935Z,101294.56
2023-04-05T11:17:27.344Z,101289.97
2023-04-05T11:20:05.647Z,101289.28
2023-04-05T11:22:49.308Z,101279.28
2023-04-05T11:25:23.792Z,101279.38
2023-04-05T11:28:01.803Z,101278.13
2023-04-05T11:30:50.878Z,101276.34
2023-04-05T11:33:39.310Z,101273.22
2023-04-05T11:36:07.947Z,101272.31
2023-04-05T11:38:36.287Z,101273.91
2023-04-05T11:41:12.362Z,101273.06
2023-04-05T11:43:42.127Z,101258.28
2023-04-05T11:46:15.553Z,101253.16
2023-04-05T11:48:43.293Z,101254.00
2023-04-05T11:51:10.948Z,101264.91
2023-04-05T11:53:38.681Z,101256.41
2023-04-05T11:56:13.848Z,101254.31
2023-04-05T11:58:41.926Z,101252.50
2023-04-05T12:01:17.006Z,101244.34
2023-04-05T12:03:44.715Z,101245.44
2023-04-05T12:06:12.476Z,101241.13
2023-04-05T12:08:43.389Z,101248.78
2023-04-05T12:11:12.610Z,101235.41
2023-04-05T12:13:39.853Z,101241.00
2023-04-05T12:16:10.878Z,101236.38
2023-04-05T12:18:38.281Z,101239.19
2023-04-05T12:21:07.843Z,101241.09
2023-04-05T12:23:35.668Z,101235.69
2023-04-05T12:26:04.187Z,101226.41
2023-04-05T12:29:13.204Z,101226.50
2023-04-05T12:31:45.301Z,101231.63
2023-04-05T12:34:15.538Z,101221.94
2023-04-05T12:36:46.308Z,101224.38
2023-04-05T12:39:15.472Z,101207.94
2023-04-05T12:41:43.478Z,101211.41
2023-04-05T12:44:17.767Z,101211.28
2023-04-05T12:46:47.854Z,101213.66
2023-04-05T12:49:19.166Z,101208.84
2023-04-05T12:51:46.780Z,101214.31
2023-04-05T12:54:23.623Z,101199.44
2023-04-05T12:56:51.710Z,101201.22
2023-04-05T12:59:19.255Z,101201.22
2023-04-05T13:01:46.976Z,101190.66
2023-04-05T13:04:16.504Z,101196.38
2023-04-05T13:06:47.653Z,101196.66
2023-04-05T13:09:15.895Z,101195.00
2023-04-05T13:11:46.206Z,101192.22
2023-04-05T13:14:15.018Z,101189.00
2023-04-05T13:16:42.868Z,101189.00
2023-04-05T13:19:11.983Z,101178.53
2023-04-05T13:21:39.874Z,101184.59
2023-04-05T13:24:12.301Z,101176.78
2023-04-05T13:26:40.845Z,101173.94
2023-04-05T13:29:08.802Z,101173.34
2023-04-05T13:31:36.793Z,101165.81
2023-04-05T13:34:04.252Z,101158.75
2023-04-05T13:36:32.137Z,101166.56
2023-04-05T13:39:00.004Z,101159.56
2023-04-05T13:41:30.862Z,101156.28
2023-04-05T13:44:01.542Z,101153.22
2023-04-05T13:46:30.121Z,101158.38
2023-04-05T13:48:58.249Z,101157.78
2023-04-05T13:51:31.402Z,101154.78
2023-04-05T13:53:59.818Z,101153.84
2023-04-05T13:56:27.968Z,101158.25
2023-04-05T13:58:55.733Z,101154.56
2023-04-05T14:01:23.696Z,101140.78
2023-04-05T14:03:52.165Z,101144.91
2023-04-05T14:06:20.346Z,101139.69
2023-04-05T14:08:48.432Z,101141.38
2023-04-05T14:11:16.117Z,101133.34
2023-04-05T14:13:44.194Z,101132.72
2023-04-05T14:16:12.447Z,101135.44
2023-04-05T14:18:40.473Z,101130.03
2023-04-05T14:21:08.797Z,101127.56
2023-04-05T14:23:37.096Z,101121.44
2023-04-05T14:26:04.520Z,101127.53
2023-04-05T14:28:33.074Z,101122.38
2023-04-05T14:31:00.642Z,101124.91
2023-04-05T14:33:29.324Z,101123.16
2023-04-05T14:35:57.533Z,101118.69
2023-04-05T14:38:26.654Z,101121.69
2023-04-05T14:40:54.988Z,101121.97
2023-04-05T14:43:22.776Z,101118.50
2023-04-05T14:45:51.001Z,101116.69
2023-04-05T14:48:19.328Z,101120.88
2023-04-05T14:50:47.450Z,101123.78
2023-04-05T14:53:16.240Z,101115.56
2023-04-05T14:55:44.416Z,101120.78
2023-04-05T14:58:14.370Z,101120.28
2023-04-05T15:00:42.989Z,101109.72
2023-04-05T15:03:10.868Z,101112.88
2023-04-05T15:05:39.029Z,101106.31
2023-04-05T15:08:06.844Z,101108.84
2023-04-05T15:10:34.510Z,101106.19
2023-04-05T15:13:02.659Z,101105.59
2023-04-05T15:15:31.359Z,101107.81
2023-04-05T15:17:59.668Z,101112.44
2023-04-05T15:20:30.941Z,101106.34
2023-04-05T15:22:59.221Z,101109.00
2023-04-05T15:25:26.867Z,101105.50
2023-04-05T15:27:55.501Z,101107.22
2023-04-05T15:30:23.850Z,101110.72
2023-04-05T15:32:53.999Z,101106.38
2023-04-05T15:35:21.969Z,101109.88
2023-04-05T15:37:50.722Z,101110.75
2023-04-05T15:40:18.851Z,101106.34
2023-04-05T15:42:46.368Z,101098.34
2023-04-05T15:45:13.984Z,101102.19
2023-04-05T15:47:42.148Z,101099.13
2023-04-05T15:50:10.429Z,101097.22
2023-04-05T15:52:38.060Z,101099.75
2023-04-05T15:55:07.718Z,101100.78
2023-04-05T15:57:35.655Z,101098.91
2023-04-05T16:00:03.965Z,101101.63
2023-04-05T16:02:31.617Z,101100.06
2023-04-05T16:04:59.863Z,101104.00
2023-04-05T16:07:28.905Z,101101.78
2023-04-05T16:09:56.716Z,101104.63
2023-04-05T16:12:24.522Z,101105.50
2023-04-05T16:14:57.022Z,101103.75
2023-04-05T16:17:25.666Z,101097.59
2023-04-05T16:19:55.607Z,101096.56
2023-04-05T16:22:25.100Z,101101.31
2023-04-05T16:24:54.780Z,101100.81
2023-04-05T16:27:23.011Z,101105.78
2023-04-05T16:29:51.280Z,101105.53
2023-04-05T16:32:19.640Z,101110.13
2023-04-05T16:34:47.293Z,101105.81
2023-04-05T16:37:15.045Z,101103.50
2023-04-05T16:39:42.835Z,101106.16
2023-04-05T16:42:10.690Z,101112.47
2023-04-05T16:44:38.839Z,101111.19
2023-04-05T16:47:07.214Z,101115.09
2023-04-05T16:49:37.662Z,101116.34
2023-04-05T16:52:05.488Z,101110.47
2023-04-05T16:54:33.543Z,101117.47
2023-04-05T16:57:01.263Z,101122.16
2023-04-05T16:59:29.266Z,101126.03
2023-04-05T17:01:57.537Z,101129.25
2023-04-05T17:04:25.569Z,101122.72
2023-04-05T17:06:53.360Z,101123.63
2023-04-05T17:09:23.194Z,101131.22
2023-04-05T17:11:51.384Z,101126.63
2023-04-05T17:14:20.079Z,101137.00
2023-04-05T17:16:48.579Z,101136.41
2023-04-05T17:19:17.385Z,101138.59
2023-04-05T17:21:47.419Z,101139.81
2023-04-05T17:24:17.353Z,101138.47
2023-04-05T17:26:44.783Z,101145.06
2023-04-05T17:29:19.674Z,101149.81
2023-04-05T17:31:47.429Z,101147.72
2023-04-05T17:34:16.836Z,101141.22
2023-04-05T17:36:44.154Z,101139.97
2023-04-05T17:39:12.259Z,101160.41
2023-04-05T17:41:40.249Z,101152.00
2023-04-05T17:44:08.058Z,101153.03
2023-04-05T17:46:42.735Z,101157.63
2023-04-05T17:49:14.351Z,101157.13
2023-04-05T17:51:41.997Z,101161.81
2023-04-05T17:54:12.366Z,101157.13
2023-04-05T17:56:40.159Z,101157.91
2023-04-05T17:59:08.230Z,101164.44
2023-04-05T18:01:38.001Z,101170.22
2023-04-05T18:04:06.898Z,101172.38
2023-04-05T18:06:35.398Z,101177.25
2023-04-05T18:09:08.684Z,101176.09
2023-04-05T18:11:36.695Z,101181.81
2023-04-05T18:14:05.458Z,101184.91
2023-04-05T18:16:33.917Z,101192.41
2023-04-05T18:19:02.411Z,101191.44
2023-04-05T18:21:31.068Z,101198.16
2023-04-05T18:23:58.946Z,101199.50
2023-04-05T18:26:30.549Z,101198.56
2023-04-05T18:29:00.231Z,101206.13
2023-04-05T18:31:29.109Z,101208.41
2023-04-05T18:33:57.294Z,101211.59
2023-04-05T18:36:27.984Z,101215.81
2023-04-05T18:38:58.032Z,101220.84
2023-04-05T18:41:26.777Z,101223.13
2023-04-05T18:43:55.238Z,101226.16
2023-04-05T18:46:23.729Z,101233.94
2023-04-05T18:48:54.859Z,101241.16
2023-04-05T18:51:22.631Z,101245.09
2023-04-05T18:53:49.640Z,101243.19
2023-04-05T18:56:17.579Z,101255.03
2023-04-05T18:58:45.697Z,101255.47
2023-04-05T19:01:16.138Z,101253.44
2023-04-05T19:03:45.240Z,101265.34
2023-04-05T19:06:12.690Z,101264.91
2023-04-05T19:08:40.304Z,101263.53
2023-04-05T19:11:08.233Z,101265.06
2023-04-05T19:13:36.017Z,101267.97
2023-04-05T19:16:03.282Z,101274.00
2023-04-05T19:18:31.018Z,101275.75
2023-04-05T19:21:21.283Z,101280.22
2023-04-05T19:23:49.901Z,101283.25
2023-04-05T19:26:20.653Z,101282.94
2023-04-05T19:28:49.837Z,101282.06
2023-04-05T19:31:17.592Z,101290.25
2023-04-05T19:33:45.406Z,101300.91
2023-04-05T19:36:13.541Z,101298.59
2023-04-05T19:38:40.826Z,101290.50
2023-04-05T19:41:09.073Z,101298.50
2023-04-05T19:43:37.006Z,101300.03
2023-04-05T19:46:04.808Z,101302.00
2023-04-05T19:48:39.814Z,101304.56
2023-04-05T19:51:08.876Z,101310.34
2023-04-05T19:53:38.848Z,101306.94
2023-04-05T19:56:09.904Z,101310.34
2023-04-05T19:58:37.572Z,101304.75
2023-04-05T20:01:05.976Z,101314.88
2023-04-05T20:03:40.566Z,101314.69
2023-04-05T20:06:17.176Z,101314.94
2023-04-05T20:08:48.243Z,101312.59
2023-04-05T20:11:45.103Z,101317.88
2023-04-05T20:14:12.985Z,101318.69
2023-04-05T20:16:41.035Z,101318.69
2023-04-05T20:19:09.705Z,101318.69
2023-04-05T20:21:40.855Z,101328.72
2023-04-05T20:24:09.212Z,101319.13
2023-04-05T20:26:37.052Z,101323.19
2023-04-05T20:29:07.722Z,101331.53
2023-04-05T20:31:39.150Z,101336.81
2023-04-05T20:34:09.703Z,101331.22
2023-04-05T20:36:39.078Z,101336.19
2023-04-05T20:39:08.062Z,101338.63
2023-04-05T20:41:36.369Z,101341.75
2023-04-05T20:44:04.525Z,101342.16
2023-04-05T20:46:32.548Z,101350.53
2023-04-05T20:49:03.777Z,101347.97
2023-04-05T20:51:31.811Z,101354.34
2023-04-05T20:53:59.380Z,101365.19
2023-04-05T20:56:27.279Z,101364.88
2023-04-05T20:58:55.928Z,101363.13
2023-04-05T21:01:24.143Z,101372.19
2023-04-05T21:03:53.411Z,101379.63
2023-04-05T21:06:21.732Z,101370.13
2023-04-05T21:08:49.496Z,101377.81
2023-04-05T21:11:17.664Z,101376.97
2023-04-05T21:13:45.686Z,101372.50
2023-04-05T21:16:13.862Z,101377.72
2023-04-05T21:18:41.615Z,101373.56
2023-04-05T21:21:09.289Z,101376.75
2023-04-05T21:23:37.602Z,101370.91
2023-04-05T21:26:06.197Z,101376.94
2023-04-05T21:28:34.043Z,101378.69
2023-04-05T21:31:02.194Z,101376.75
2023-04-05T21:33:30.644Z,101379.22
2023-04-05T21:35:58.871Z,101374.69
2023-04-05T21:38:27.242Z,101373.34
2023-04-05T21:40:55.723Z,101373.09
2023-04-05T21:43:26.308Z,101386.09
2023-04-05T21:45:54.024Z,101385.00
2023-04-05T21:48:21.729Z,101386.63
2023-04-05T21:50:49.500Z,101392.25
2023-04-05T21:53:17.195Z,101392.53
2023-04-05T21:55:45.509Z,101391.91
2023-04-05T21:58:13.567Z,101387.59
2023-04-05T22:00:41.813Z,101393.31
2023-04-05T22:03:10.207Z,101386.78
2023-04-05T22:05:39.054Z,101393.50
2023-04-05T22:08:07.584Z,101390.84
2023-04-05T22:10:37.177Z,101391.03
2023-04-05T22:13:04.840Z,101402.66
2023-04-05T22:15:33.199Z,101398.63
2023-04-05T22:18:00.975Z,101397.97
2023-04-05T22:20:29.277Z,101404.75
2023-04-05T22:22:57.130Z,101407.31
2023-04-05T22:25:26.446Z,101403.19
2023-04-05T22:27:59.858Z,101406.34
2023-04-05T22:30:28.598Z,101405.84
2023-04-05T22:32:56.943Z,101398.25
2023-04-05T22:35:25.275Z,101404.09
2023-04-05T22:37:53.044Z,101400.91
2023-04-05T22:40:26.998Z,101403.03
2023-04-05T22:42:55.019Z,101408.31
2023-04-05T22:45:26.760Z,101411.25
2023-04-05T22:47:54.356Z,101408.69
2023-04-05T22:50:22.573Z,101404.59
2023-04-05T22:52:50.768Z,101402.22
2023-04-05T22:55:18.929Z,101408.31
2023-04-05T22:57:46.630Z,101406.47
2023-04-05T23:00:17.573Z,101406.91
2023-04-05T23:02:45.710Z,101406.75
2023-04-05T23:05:13.880Z,101412.53
2023-04-05T23:07:42.025Z,101416.00
2023-04-05T23:10:11.780Z,101412.72
2023-04-05T23:12:39.755Z,101405.94
2023-04-05T23:15:10.192Z,101410.28
2023-04-05T23:17:38.640Z,101418.72
2023-04-05T23:20:07.584Z,101410.06
2023-04-05T23:22:36.172Z,101412.63
2023-04-05T23:25:27.215Z,101421.38
2023-04-05T23:27:55.426Z,101422.09
2023-04-05T23:30:22.591Z,101413.78
2023-04-05T23:32:50.551Z,101423.31
2023-04-05T23:35:18.639Z,101419.59
2023-04-05T23:37:46.792Z,101422.25
2023-04-05T23:40:15.106Z,101422.09
2023-04-05T23:42:43.170Z,101426.22
2023-04-05T23:45:12.564Z,101425.06
2023-04-05T23:47:40.608Z,101423.81
2023-04-05T23:50:11.239Z,101431.31
2023-04-05T23:52:39.368Z,101424.34
2023-04-05T23:55:08.692Z,101425.13
2023-04-05T23:57:36.444Z,101418.16
